sensor_id;sensor_type;location;lat;lon;timestamp;P1;durP1;ratioP1;P2;durP2;ratioP2
40995;SDS011;26723;57.478;12.066;2023-02-24T00:01:28;1.20;;;1.20;;
40995;SDS011;26723;57.478;12.066;2023-02-24T00:04:44;1.40;;;1.30;;
40995;SDS011;26723;57.478;12.066;2023-02-24T00:07:57;2.20;;;1.27;;
40995;SDS011;26723;57.478;12.066;2023-02-24T00:11:06;1.73;;;1.33;;
40995;SDS011;26723;57.478;12.066;2023-02-24T00:14:16;3.30;;;1.40;;
40995;SDS011;26723;57.478;12.066;2023-02-24T00:17:25;1.30;;;1.20;;
40995;SDS011;26723;57.478;12.066;2023-02-24T00:20:38;1.30;;;1.20;;
40995;SDS011;26723;57.478;12.066;2023-02-24T00:23:46;1.40;;;1.30;;
40995;SDS011;26723;57.478;12.066;2023-02-24T00:26:56;1.40;;;1.23;;
40995;SDS011;26723;57.478;12.066;2023-02-24T00:30:06;2.30;;;1.17;;
40995;SDS011;26723;57.478;12.066;2023-02-24T00:33:17;3.00;;;1.17;;
40995;SDS011;26723;57.478;12.066;2023-02-24T00:36:30;4.67;;;0.93;;
40995;SDS011;26723;57.478;12.066;2023-02-24T00:39:40;1.60;;;1.03;;
40995;SDS011;26723;57.478;12.066;2023-02-24T00:42:49;1.50;;;1.13;;
40995;SDS011;26723;57.478;12.066;2023-02-24T00:45:59;1.43;;;1.20;;
40995;SDS011;26723;57.478;12.066;2023-02-24T00:49:10;1.50;;;1.17;;
40995;SDS011;26723;57.478;12.066;2023-02-24T00:52:24;1.30;;;1.20;;
40995;SDS011;26723;57.478;12.066;2023-02-24T00:55:33;1.87;;;1.33;;
40995;SDS011;26723;57.478;12.066;2023-02-24T00:58:42;1.30;;;1.20;;
40995;SDS011;26723;57.478;12.066;2023-02-24T01:01:51;1.47;;;1.27;;
40995;SDS011;26723;57.478;12.066;2023-02-24T01:05:00;3.97;;;1.50;;
40995;SDS011;26723;57.478;12.066;2023-02-24T01:08:12;1.10;;;0.97;;
40995;SDS011;26723;57.478;12.066;2023-02-24T01:11:31;1.40;;;1.10;;
40995;SDS011;26723;57.478;12.066;2023-02-24T01:14:57;1.67;;;1.27;;
40995;SDS011;26723;57.478;12.066;2023-02-24T01:18:09;1.90;;;1.10;;
40995;SDS011;26723;57.478;12.066;2023-02-24T01:21:17;2.47;;;1.10;;
40995;SDS011;26723;57.478;12.066;2023-02-24T01:24:29;3.57;;;0.97;;
40995;SDS011;26723;57.478;12.066;2023-02-24T01:27:39;3.07;;;1.13;;
40995;SDS011;26723;57.478;12.066;2023-02-24T01:30:48;2.27;;;1.00;;
40995;SDS011;26723;57.478;12.066;2023-02-24T01:33:56;1.40;;;0.80;;
40995;SDS011;26723;57.478;12.066;2023-02-24T01:37:11;4.40;;;1.10;;
40995;SDS011;26723;57.478;12.066;2023-02-24T01:40:23;4.33;;;1.00;;
40995;SDS011;26723;57.478;12.066;2023-02-24T01:43:32;3.43;;;1.10;;
40995;SDS011;26723;57.478;12.066;2023-02-24T01:47:01;2.23;;;0.80;;
40995;SDS011;26723;57.478;12.066;2023-02-24T01:50:10;3.10;;;1.10;;
40995;SDS011;26723;57.478;12.066;2023-02-24T01:53:20;2.87;;;0.90;;
40995;SDS011;26723;57.478;12.066;2023-02-24T01:56:30;2.33;;;0.73;;
40995;SDS011;26723;57.478;12.066;2023-02-24T01:59:39;0.70;;;0.67;;
40995;SDS011;26723;57.478;12.066;2023-02-24T02:02:48;0.90;;;0.70;;
40995;SDS011;26723;57.478;12.066;2023-02-24T02:05:59;3.07;;;0.83;;
40995;SDS011;26723;57.478;12.066;2023-02-24T02:09:09;4.53;;;0.97;;
40995;SDS011;26723;57.478;12.066;2023-02-24T02:12:22;4.30;;;1.10;;
40995;SDS011;26723;57.478;12.066;2023-02-24T02:15:31;2.73;;;0.93;;
40995;SDS011;26723;57.478;12.066;2023-02-24T02:18:48;2.30;;;1.00;;
40995;SDS011;26723;57.478;12.066;2023-02-24T02:22:03;2.07;;;0.93;;
40995;SDS011;26723;57.478;12.066;2023-02-24T02:25:19;3.87;;;1.10;;
40995;SDS011;26723;57.478;12.066;2023-02-24T02:28:49;3.43;;;0.93;;
40995;SDS011;26723;57.478;12.066;2023-02-24T02:32:29;1.33;;;0.80;;
40995;SDS011;26723;57.478;12.066;2023-02-24T02:36:00;2.33;;;1.10;;
40995;SDS011;26723;57.478;12.066;2023-02-24T02:39:21;3.80;;;1.10;;
40995;SDS011;26723;57.478;12.066;2023-02-24T02:42:39;2.53;;;1.00;;
40995;SDS011;26723;57.478;12.066;2023-02-24T02:45:52;2.37;;;0.90;;
40995;SDS011;26723;57.478;12.066;2023-02-24T02:49:07;0.57;;;0.57;;
40995;SDS011;26723;57.478;12.066;2023-02-24T02:52:27;3.73;;;1.00;;
40995;SDS011;26723;57.478;12.066;2023-02-24T02:55:41;1.93;;;1.03;;
40995;SDS011;26723;57.478;12.066;2023-02-24T02:58:54;1.37;;;0.90;;
40995;SDS011;26723;57.478;12.066;2023-02-24T03:02:04;1.27;;;1.00;;
40995;SDS011;26723;57.478;12.066;2023-02-24T03:05:26;1.30;;;0.90;;
40995;SDS011;26723;57.478;12.066;2023-02-24T03:08:41;1.60;;;0.80;;
40995;SDS011;26723;57.478;12.066;2023-02-24T03:12:04;2.23;;;0.83;;
40995;SDS011;26723;57.478;12.066;2023-02-24T03:15:15;4.63;;;1.00;;
40995;SDS011;26723;57.478;12.066;2023-02-24T03:18:27;1.70;;;0.80;;
40995;SDS011;26723;57.478;12.066;2023-02-24T03:21:39;2.10;;;0.50;;
40995;SDS011;26723;57.478;12.066;2023-02-24T03:24:54;0.53;;;0.50;;
40995;SDS011;26723;57.478;12.066;2023-02-24T03:28:11;2.17;;;0.60;;
40995;SDS011;26723;57.478;12.066;2023-02-24T03:31:24;2.53;;;0.67;;
40995;SDS011;26723;57.478;12.066;2023-02-24T03:34:37;0.57;;;0.37;;
40995;SDS011;26723;57.478;12.066;2023-02-24T03:37:52;1.80;;;0.60;;
40995;SDS011;26723;57.478;12.066;2023-02-24T03:41:05;1.23;;;0.50;;
40995;SDS011;26723;57.478;12.066;2023-02-24T03:44:17;1.50;;;0.60;;
40995;SDS011;26723;57.478;12.066;2023-02-24T03:47:26;1.20;;;0.53;;
40995;SDS011;26723;57.478;12.066;2023-02-24T03:50:34;1.80;;;0.70;;
40995;SDS011;26723;57.478;12.066;2023-02-24T03:53:59;1.30;;;0.57;;
40995;SDS011;26723;57.478;12.066;2023-02-24T03:57:21;0.70;;;0.70;;
40995;SDS011;26723;57.478;12.066;2023-02-24T04:00:43;1.50;;;0.33;;
40995;SDS011;26723;57.478;12.066;2023-02-24T04:03:59;1.20;;;0.57;;
40995;SDS011;26723;57.478;12.066;2023-02-24T04:07:22;1.40;;;0.50;;
40995;SDS011;26723;57.478;12.066;2023-02-24T04:10:40;1.17;;;0.70;;
40995;SDS011;26723;57.478;12.066;2023-02-24T04:14:04;2.93;;;0.60;;
40995;SDS011;26723;57.478;12.066;2023-02-24T04:17:18;1.80;;;0.70;;
40995;SDS011;26723;57.478;12.066;2023-02-24T04:20:31;1.23;;;0.43;;
40995;SDS011;26723;57.478;12.066;2023-02-24T04:23:43;0.57;;;0.33;;
40995;SDS011;26723;57.478;12.066;2023-02-24T04:26:54;0.50;;;0.50;;
40995;SDS011;26723;57.478;12.066;2023-02-24T04:30:09;0.83;;;0.47;;
40995;SDS011;26723;57.478;12.066;2023-02-24T04:33:19;1.47;;;0.30;;
40995;SDS011;26723;57.478;12.066;2023-02-24T04:36:28;0.30;;;0.30;;
40995;SDS011;26723;57.478;12.066;2023-02-24T04:39:39;0.73;;;0.57;;
40995;SDS011;26723;57.478;12.066;2023-02-24T04:42:54;1.43;;;0.40;;
40995;SDS011;26723;57.478;12.066;2023-02-24T04:46:04;0.83;;;0.30;;
40995;SDS011;26723;57.478;12.066;2023-02-24T04:49:13;0.43;;;0.40;;
40995;SDS011;26723;57.478;12.066;2023-02-24T04:52:23;0.57;;;0.30;;
40995;SDS011;26723;57.478;12.066;2023-02-24T04:55:33;0.70;;;0.40;;
40995;SDS011;26723;57.478;12.066;2023-02-24T04:58:45;3.03;;;0.30;;
40995;SDS011;26723;57.478;12.066;2023-02-24T05:01:55;1.07;;;0.17;;
40995;SDS011;26723;57.478;12.066;2023-02-24T05:05:07;0.73;;;0.33;;
40995;SDS011;26723;57.478;12.066;2023-02-24T05:08:15;1.77;;;0.50;;
40995;SDS011;26723;57.478;12.066;2023-02-24T05:11:25;2.20;;;0.20;;
40995;SDS011;26723;57.478;12.066;2023-02-24T05:14:40;1.80;;;0.60;;
40995;SDS011;26723;57.478;12.066;2023-02-24T05:17:51;1.43;;;0.50;;
40995;SDS011;26723;57.478;12.066;2023-02-24T05:21:02;1.80;;;0.60;;
40995;SDS011;26723;57.478;12.066;2023-02-24T05:24:30;0.93;;;0.37;;
40995;SDS011;26723;57.478;12.066;2023-02-24T05:27:38;2.33;;;0.80;;
40995;SDS011;26723;57.478;12.066;2023-02-24T05:30:46;1.90;;;0.50;;
40995;SDS011;26723;57.478;12.066;2023-02-24T05:33:58;1.30;;;0.73;;
40995;SDS011;26723;57.478;12.066;2023-02-24T05:37:08;2.13;;;0.40;;
40995;SDS011;26723;57.478;12.066;2023-02-24T05:40:17;1.23;;;0.60;;
40995;SDS011;26723;57.478;12.066;2023-02-24T05:43:28;2.00;;;0.53;;
40995;SDS011;26723;57.478;12.066;2023-02-24T05:46:38;0.83;;;0.40;;
40995;SDS011;26723;57.478;12.066;2023-02-24T05:49:49;0.20;;;0.20;;
40995;SDS011;26723;57.478;12.066;2023-02-24T05:53:02;0.87;;;0.40;;
40995;SDS011;26723;57.478;12.066;2023-02-24T05:56:10;0.97;;;0.50;;
40995;SDS011;26723;57.478;12.066;2023-02-24T05:59:19;0.77;;;0.40;;
40995;SDS011;26723;57.478;12.066;2023-02-24T06:02:27;1.23;;;0.60;;
40995;SDS011;26723;57.478;12.066;2023-02-24T06:05:51;4.50;;;1.07;;
40995;SDS011;26723;57.478;12.066;2023-02-24T06:08:59;2.13;;;0.70;;
40995;SDS011;26723;57.478;12.066;2023-02-24T06:12:13;3.27;;;0.50;;
40995;SDS011;26723;57.478;12.066;2023-02-24T06:15:21;1.17;;;0.50;;
40995;SDS011;26723;57.478;12.066;2023-02-24T06:18:30;1.73;;;0.60;;
40995;SDS011;26723;57.478;12.066;2023-02-24T06:21:40;3.07;;;0.43;;
40995;SDS011;26723;57.478;12.066;2023-02-24T06:24:49;1.07;;;0.40;;
40995;SDS011;26723;57.478;12.066;2023-02-24T06:27:59;1.57;;;0.50;;
40995;SDS011;26723;57.478;12.066;2023-02-24T06:31:07;0.93;;;0.43;;
40995;SDS011;26723;57.478;12.066;2023-02-24T06:34:16;1.10;;;0.60;;
40995;SDS011;26723;57.478;12.066;2023-02-24T06:37:26;1.50;;;0.40;;
40995;SDS011;26723;57.478;12.066;2023-02-24T06:40:35;3.90;;;0.63;;
40995;SDS011;26723;57.478;12.066;2023-02-24T06:43:44;1.20;;;0.83;;
40995;SDS011;26723;57.478;12.066;2023-02-24T06:46:53;2.57;;;0.67;;
40995;SDS011;26723;57.478;12.066;2023-02-24T06:50:03;2.13;;;0.50;;
40995;SDS011;26723;57.478;12.066;2023-02-24T06:53:14;1.80;;;0.83;;
40995;SDS011;26723;57.478;12.066;2023-02-24T06:56:24;1.07;;;0.50;;
40995;SDS011;26723;57.478;12.066;2023-02-24T06:59:34;4.60;;;0.63;;
40995;SDS011;26723;57.478;12.066;2023-02-24T07:02:43;3.37;;;0.90;;
40995;SDS011;26723;57.478;12.066;2023-02-24T07:05:52;1.03;;;0.40;;
40995;SDS011;26723;57.478;12.066;2023-02-24T07:09:19;1.70;;;0.50;;
40995;SDS011;26723;57.478;12.066;2023-02-24T07:12:28;1.07;;;0.73;;
40995;SDS011;26723;57.478;12.066;2023-02-24T07:15:36;2.07;;;0.80;;
40995;SDS011;26723;57.478;12.066;2023-02-24T07:18:45;0.80;;;0.80;;
40995;SDS011;26723;57.478;12.066;2023-02-24T07:21:54;1.30;;;0.40;;
40995;SDS011;26723;57.478;12.066;2023-02-24T07:25:07;0.43;;;0.43;;
40995;SDS011;26723;57.478;12.066;2023-02-24T07:28:35;3.83;;;1.20;;
40995;SDS011;26723;57.478;12.066;2023-02-24T07:31:45;2.30;;;0.80;;
40995;SDS011;26723;57.478;12.066;2023-02-24T07:34:54;1.90;;;0.80;;
40995;SDS011;26723;57.478;12.066;2023-02-24T07:38:03;3.10;;;0.87;;
40995;SDS011;26723;57.478;12.066;2023-02-24T07:41:15;2.83;;;0.80;;
40995;SDS011;26723;57.478;12.066;2023-02-24T07:44:25;2.93;;;0.73;;
40995;SDS011;26723;57.478;12.066;2023-02-24T07:47:34;2.47;;;1.10;;
40995;SDS011;26723;57.478;12.066;2023-02-24T07:50:43;1.93;;;1.03;;
40995;SDS011;26723;57.478;12.066;2023-02-24T07:53:52;2.40;;;1.20;;
40995;SDS011;26723;57.478;12.066;2023-02-24T07:57:06;4.73;;;1.30;;
40995;SDS011;26723;57.478;12.066;2023-02-24T08:00:19;2.20;;;1.10;;
40995;SDS011;26723;57.478;12.066;2023-02-24T08:03:33;4.73;;;1.10;;
40995;SDS011;26723;57.478;12.066;2023-02-24T08:06:46;5.83;;;1.33;;
40995;SDS011;26723;57.478;12.066;2023-02-24T08:10:01;3.73;;;1.23;;
40995;SDS011;26723;57.478;12.066;2023-02-24T08:13:31;2.37;;;0.90;;
40995;SDS011;26723;57.478;12.066;2023-02-24T08:16:43;5.03;;;0.80;;
40995;SDS011;26723;57.478;12.066;2023-02-24T08:19:53;2.80;;;1.10;;
40995;SDS011;26723;57.478;12.066;2023-02-24T08:23:22;2.77;;;1.20;;
40995;SDS011;26723;57.478;12.066;2023-02-24T08:26:31;2.90;;;1.10;;
40995;SDS011;26723;57.478;12.066;2023-02-24T08:29:48;6.17;;;1.20;;
40995;SDS011;26723;57.478;12.066;2023-02-24T08:33:05;2.93;;;0.70;;
40995;SDS011;26723;57.478;12.066;2023-02-24T08:36:15;2.90;;;0.93;;
40995;SDS011;26723;57.478;12.066;2023-02-24T08:39:26;5.67;;;1.40;;
40995;SDS011;26723;57.478;12.066;2023-02-24T08:42:35;6.13;;;0.97;;
40995;SDS011;26723;57.478;12.066;2023-02-24T08:45:46;3.13;;;1.03;;
40995;SDS011;26723;57.478;12.066;2023-02-24T08:48:57;1.63;;;0.63;;
40995;SDS011;26723;57.478;12.066;2023-02-24T08:52:06;1.90;;;0.57;;
40995;SDS011;26723;57.478;12.066;2023-02-24T08:55:15;2.38;;;0.60;;
40995;SDS011;26723;57.478;12.066;2023-02-24T08:58:28;0.83;;;0.63;;
40995;SDS011;26723;57.478;12.066;2023-02-24T09:01:38;0.40;;;0.40;;
40995;SDS011;26723;57.478;12.066;2023-02-24T09:05:10;1.13;;;0.47;;
40995;SDS011;26723;57.478;12.066;2023-02-24T09:08:20;0.50;;;0.50;;
40995;SDS011;26723;57.478;12.066;2023-02-24T09:11:29;1.73;;;1.00;;
40995;SDS011;26723;57.478;12.066;2023-02-24T09:14:37;3.23;;;0.50;;
40995;SDS011;26723;57.478;12.066;2023-02-24T09:17:49;1.67;;;0.90;;
40995;SDS011;26723;57.478;12.066;2023-02-24T09:21:07;2.40;;;0.83;;
40995;SDS011;26723;57.478;12.066;2023-02-24T09:24:45;1.77;;;0.90;;
40995;SDS011;26723;57.478;12.066;2023-02-24T09:28:03;2.57;;;1.40;;
40995;SDS011;26723;57.478;12.066;2023-02-24T09:31:13;0.87;;;0.87;;
40995;SDS011;26723;57.478;12.066;2023-02-24T09:34:24;1.23;;;0.80;;
40995;SDS011;26723;57.478;12.066;2023-02-24T09:37:35;2.33;;;0.80;;
40995;SDS011;26723;57.478;12.066;2023-02-24T09:40:47;1.50;;;0.70;;
40995;SDS011;26723;57.478;12.066;2023-02-24T09:43:57;1.30;;;0.70;;
40995;SDS011;26723;57.478;12.066;2023-02-24T09:47:10;0.60;;;0.40;;
40995;SDS011;26723;57.478;12.066;2023-02-24T09:50:27;1.83;;;0.70;;
40995;SDS011;26723;57.478;12.066;2023-02-24T09:54:11;0.53;;;0.47;;
40995;SDS011;26723;57.478;12.066;2023-02-24T09:57:22;3.40;;;0.43;;
40995;SDS011;26723;57.478;12.066;2023-02-24T10:00:46;1.10;;;0.43;;
40995;SDS011;26723;57.478;12.066;2023-02-24T10:04:05;0.60;;;0.47;;
40995;SDS011;26723;57.478;12.066;2023-02-24T10:07:29;0.40;;;0.20;;
40995;SDS011;26723;57.478;12.066;2023-02-24T10:10:44;0.40;;;0.40;;
40995;SDS011;26723;57.478;12.066;2023-02-24T10:14:12;1.83;;;0.40;;
40995;SDS011;26723;57.478;12.066;2023-02-24T10:17:26;1.13;;;0.60;;
40995;SDS011;26723;57.478;12.066;2023-02-24T10:20:45;0.53;;;0.30;;
40995;SDS011;26723;57.478;12.066;2023-02-24T10:24:10;3.27;;;0.37;;
40995;SDS011;26723;57.478;12.066;2023-02-24T10:27:25;0.53;;;0.40;;
40995;SDS011;26723;57.478;12.066;2023-02-24T10:30:42;1.83;;;0.80;;
40995;SDS011;26723;57.478;12.066;2023-02-24T10:34:07;1.73;;;0.30;;
40995;SDS011;26723;57.478;12.066;2023-02-24T10:37:20;0.60;;;0.50;;
40995;SDS011;26723;57.478;12.066;2023-02-24T10:40:43;5.07;;;1.30;;
40995;SDS011;26723;57.478;12.066;2023-02-24T10:43:58;2.73;;;0.43;;
40995;SDS011;26723;57.478;12.066;2023-02-24T10:47:11;2.33;;;0.53;;
40995;SDS011;26723;57.478;12.066;2023-02-24T10:50:20;1.80;;;0.67;;
40995;SDS011;26723;57.478;12.066;2023-02-24T10:53:31;0.60;;;0.47;;
40995;SDS011;26723;57.478;12.066;2023-02-24T10:56:44;3.07;;;0.43;;
40995;SDS011;26723;57.478;12.066;2023-02-24T11:00:04;4.33;;;0.37;;
40995;SDS011;26723;57.478;12.066;2023-02-24T11:03:31;0.60;;;0.40;;
40995;SDS011;26723;57.478;12.066;2023-02-24T11:06:47;1.27;;;0.60;;
40995;SDS011;26723;57.478;12.066;2023-02-24T11:10:02;1.57;;;0.43;;
40995;SDS011;26723;57.478;12.066;2023-02-24T11:13:19;0.83;;;0.63;;
40995;SDS011;26723;57.478;12.066;2023-02-24T11:16:52;0.57;;;0.47;;
40995;SDS011;26723;57.478;12.066;2023-02-24T11:20:26;1.93;;;0.80;;
40995;SDS011;26723;57.478;12.066;2023-02-24T11:23:53;1.70;;;0.60;;
40995;SDS011;26723;57.478;12.066;2023-02-24T11:27:05;2.47;;;0.60;;
40995;SDS011;26723;57.478;12.066;2023-02-24T11:30:16;4.23;;;0.70;;
40995;SDS011;26723;57.478;12.066;2023-02-24T11:33:44;2.00;;;0.70;;
40995;SDS011;26723;57.478;12.066;2023-02-24T11:37:03;2.20;;;0.77;;
40995;SDS011;26723;57.478;12.066;2023-02-24T11:40:23;1.00;;;0.57;;
40995;SDS011;26723;57.478;12.066;2023-02-24T11:43:34;1.40;;;0.90;;
40995;SDS011;26723;57.478;12.066;2023-02-24T11:46:49;4.63;;;0.70;;
40995;SDS011;26723;57.478;12.066;2023-02-24T11:50:12;1.93;;;0.60;;
40995;SDS011;26723;57.478;12.066;2023-02-24T11:53:33;0.70;;;0.50;;
40995;SDS011;26723;57.478;12.066;2023-02-24T11:56:44;0.97;;;0.40;;
40995;SDS011;26723;57.478;12.066;2023-02-24T11:59:57;1.03;;;0.50;;
40995;SDS011;26723;57.478;12.066;2023-02-24T12:03:18;2.00;;;0.50;;
40995;SDS011;26723;57.478;12.066;2023-02-24T12:06:35;2.10;;;0.57;;
40995;SDS011;26723;57.478;12.066;2023-02-24T12:09:46;3.40;;;0.70;;
40995;SDS011;26723;57.478;12.066;2023-02-24T12:13:05;0.83;;;0.50;;
40995;SDS011;26723;57.478;12.066;2023-02-24T12:16:23;1.77;;;0.60;;
40995;SDS011;26723;57.478;12.066;2023-02-24T12:19:38;2.67;;;1.00;;
40995;SDS011;26723;57.478;12.066;2023-02-24T12:22:57;2.70;;;0.60;;
40995;SDS011;26723;57.478;12.066;2023-02-24T12:26:15;1.10;;;0.60;;
40995;SDS011;26723;57.478;12.066;2023-02-24T12:29:30;2.63;;;1.00;;
40995;SDS011;26723;57.478;12.066;2023-02-24T12:32:55;1.93;;;0.63;;
40995;SDS011;26723;57.478;12.066;2023-02-24T12:36:20;0.93;;;0.43;;
40995;SDS011;26723;57.478;12.066;2023-02-24T12:39:39;0.77;;;0.43;;
40995;SDS011;26723;57.478;12.066;2023-02-24T12:42:56;1.20;;;0.80;;
40995;SDS011;26723;57.478;12.066;2023-02-24T12:46:12;1.23;;;0.50;;
40995;SDS011;26723;57.478;12.066;2023-02-24T12:49:32;0.37;;;0.37;;
40995;SDS011;26723;57.478;12.066;2023-02-24T12:53:04;1.27;;;0.53;;
40995;SDS011;26723;57.478;12.066;2023-02-24T12:56:24;0.30;;;0.30;;
40995;SDS011;26723;57.478;12.066;2023-02-24T12:59:38;1.37;;;0.47;;
40995;SDS011;26723;57.478;12.066;2023-02-24T13:02:51;1.13;;;0.23;;
40995;SDS011;26723;57.478;12.066;2023-02-24T13:06:05;1.13;;;0.53;;
40995;SDS011;26723;57.478;12.066;2023-02-24T13:09:26;0.30;;;0.30;;
40995;SDS011;26723;57.478;12.066;2023-02-24T13:12:39;0.77;;;0.30;;
40995;SDS011;26723;57.478;12.066;2023-02-24T13:15:56;0.33;;;0.33;;
40995;SDS011;26723;57.478;12.066;2023-02-24T13:19:16;0.40;;;0.23;;
40995;SDS011;26723;57.478;12.066;2023-02-24T13:22:27;0.40;;;0.40;;
40995;SDS011;26723;57.478;12.066;2023-02-24T13:25:39;1.73;;;0.60;;
40995;SDS011;26723;57.478;12.066;2023-02-24T13:28:55;1.93;;;0.40;;
40995;SDS011;26723;57.478;12.066;2023-02-24T13:32:19;0.60;;;0.40;;
40995;SDS011;26723;57.478;12.066;2023-02-24T13:35:32;0.80;;;0.67;;
40995;SDS011;26723;57.478;12.066;2023-02-24T13:38:43;0.40;;;0.40;;
40995;SDS011;26723;57.478;12.066;2023-02-24T13:42:01;2.30;;;0.90;;
40995;SDS011;26723;57.478;12.066;2023-02-24T13:45:17;3.03;;;0.53;;
40995;SDS011;26723;57.478;12.066;2023-02-24T13:48:34;1.90;;;0.70;;
40995;SDS011;26723;57.478;12.066;2023-02-24T13:52:05;1.03;;;0.30;;
40995;SDS011;26723;57.478;12.066;2023-02-24T13:55:29;1.70;;;0.27;;
40995;SDS011;26723;57.478;12.066;2023-02-24T14:02:30;0.60;;;0.50;;
40995;SDS011;26723;57.478;12.066;2023-02-24T14:05:48;0.30;;;0.30;;
40995;SDS011;26723;57.478;12.066;2023-02-24T14:08:58;0.70;;;0.30;;
40995;SDS011;26723;57.478;12.066;2023-02-24T14:12:11;0.80;;;0.50;;
40995;SDS011;26723;57.478;12.066;2023-02-24T14:15:24;0.55;;;0.40;;
40995;SDS011;26723;57.478;12.066;2023-02-24T14:18:34;0.98;;;0.50;;
40995;SDS011;26723;57.478;12.066;2023-02-24T14:21:46;0.80;;;0.43;;
40995;SDS011;26723;57.478;12.066;2023-02-24T14:25:00;0.57;;;0.30;;
40995;SDS011;26723;57.478;12.066;2023-02-24T14:28:12;0.50;;;0.50;;
40995;SDS011;26723;57.478;12.066;2023-02-24T14:31:30;1.40;;;0.50;;
40995;SDS011;26723;57.478;12.066;2023-02-24T14:34:38;0.67;;;0.50;;
40995;SDS011;26723;57.478;12.066;2023-02-24T14:37:47;0.27;;;0.27;;
40995;SDS011;26723;57.478;12.066;2023-02-24T14:40:55;0.83;;;0.33;;
40995;SDS011;26723;57.478;12.066;2023-02-24T14:44:06;0.30;;;0.20;;
40995;SDS011;26723;57.478;12.066;2023-02-24T14:47:26;0.20;;;0.20;;
40995;SDS011;26723;57.478;12.066;2023-02-24T14:50:37;0.30;;;0.20;;
40995;SDS011;26723;57.478;12.066;2023-02-24T14:53:47;0.20;;;0.17;;
40995;SDS011;26723;57.478;12.066;2023-02-24T14:56:59;1.13;;;0.20;;
40995;SDS011;26723;57.478;12.066;2023-02-24T15:00:12;0.10;;;0.10;;
40995;SDS011;26723;57.478;12.066;2023-02-24T15:03:29;1.67;;;0.13;;
40995;SDS011;26723;57.478;12.066;2023-02-24T15:06:41;0.33;;;0.33;;
40995;SDS011;26723;57.478;12.066;2023-02-24T15:09:51;0.97;;;0.17;;
40995;SDS011;26723;57.478;12.066;2023-02-24T15:13:05;0.27;;;0.20;;
40995;SDS011;26723;57.478;12.066;2023-02-24T15:16:17;0.30;;;0.27;;
40995;SDS011;26723;57.478;12.066;2023-02-24T15:19:32;0.33;;;0.33;;
40995;SDS011;26723;57.478;12.066;2023-02-24T15:22:46;0.10;;;0.10;;
40995;SDS011;26723;57.478;12.066;2023-02-24T15:25:56;0.40;;;0.40;;
40995;SDS011;26723;57.478;12.066;2023-02-24T15:29:11;0.00;;;0.00;;
40995;SDS011;26723;57.478;12.066;2023-02-24T15:32:22;0.10;;;0.10;;
40995;SDS011;26723;57.478;12.066;2023-02-24T15:35:35;0.00;;;0.00;;
40995;SDS011;26723;57.478;12.066;2023-02-24T15:38:45;0.00;;;0.00;;
40995;SDS011;26723;57.478;12.066;2023-02-24T15:42:06;0.07;;;0.07;;
40995;SDS011;26723;57.478;12.066;2023-02-24T15:45:23;0.00;;;0.00;;
40995;SDS011;26723;57.478;12.066;2023-02-24T15:48:36;0.10;;;0.10;;
40995;SDS011;26723;57.478;12.066;2023-02-24T15:51:51;0.20;;;0.20;;
40995;SDS011;26723;57.478;12.066;2023-02-24T15:55:01;0.20;;;0.20;;
40995;SDS011;26723;57.478;12.066;2023-02-24T15:58:11;0.20;;;0.20;;
40995;SDS011;26723;57.478;12.066;2023-02-24T16:01:22;0.20;;;0.17;;
40995;SDS011;26723;57.478;12.066;2023-02-24T16:04:31;0.07;;;0.07;;
40995;SDS011;26723;57.478;12.066;2023-02-24T16:07:42;0.10;;;0.10;;
40995;SDS011;26723;57.478;12.066;2023-02-24T16:10:51;0.10;;;0.10;;
40995;SDS011;26723;57.478;12.066;2023-02-24T16:14:00;0.30;;;0.30;;
40995;SDS011;26723;57.478;12.066;2023-02-24T16:17:23;0.13;;;0.10;;
40995;SDS011;26723;57.478;12.066;2023-02-24T16:20:35;0.30;;;0.30;;
40995;SDS011;26723;57.478;12.066;2023-02-24T16:23:46;0.20;;;0.20;;
40995;SDS011;26723;57.478;12.066;2023-02-24T16:26:55;0.40;;;0.40;;
40995;SDS011;26723;57.478;12.066;2023-02-24T16:30:04;1.13;;;0.30;;
40995;SDS011;26723;57.478;12.066;2023-02-24T16:33:14;0.63;;;0.30;;
40995;SDS011;26723;57.478;12.066;2023-02-24T16:36:26;0.20;;;0.20;;
40995;SDS011;26723;57.478;12.066;2023-02-24T16:39:36;0.10;;;0.10;;
40995;SDS011;26723;57.478;12.066;2023-02-24T16:42:45;0.20;;;0.20;;
40995;SDS011;26723;57.478;12.066;2023-02-24T16:45:53;0.37;;;0.37;;
40995;SDS011;26723;57.478;12.066;2023-02-24T16:49:08;0.43;;;0.30;;
40995;SDS011;26723;57.478;12.066;2023-02-24T16:52:19;0.30;;;0.27;;
40995;SDS011;26723;57.478;12.066;2023-02-24T16:55:30;0.30;;;0.30;;
40995;SDS011;26723;57.478;12.066;2023-02-24T16:58:38;0.40;;;0.40;;
40995;SDS011;26723;57.478;12.066;2023-02-24T17:01:47;0.10;;;0.10;;
40995;SDS011;26723;57.478;12.066;2023-02-24T17:04:55;0.27;;;0.27;;
40995;SDS011;26723;57.478;12.066;2023-02-24T17:08:04;0.10;;;0.10;;
40995;SDS011;26723;57.478;12.066;2023-02-24T17:11:15;0.23;;;0.23;;
40995;SDS011;26723;57.478;12.066;2023-02-24T17:14:27;0.23;;;0.23;;
40995;SDS011;26723;57.478;12.066;2023-02-24T17:17:38;0.20;;;0.20;;
40995;SDS011;26723;57.478;12.066;2023-02-24T17:20:47;0.30;;;0.30;;
40995;SDS011;26723;57.478;12.066;2023-02-24T17:23:58;0.30;;;0.30;;
40995;SDS011;26723;57.478;12.066;2023-02-24T17:27:09;0.40;;;0.40;;
40995;SDS011;26723;57.478;12.066;2023-02-24T17:30:20;0.37;;;0.37;;
40995;SDS011;26723;57.478;12.066;2023-02-24T17:33:30;0.50;;;0.50;;
40995;SDS011;26723;57.478;12.066;2023-02-24T17:36:42;0.80;;;0.80;;
40995;SDS011;26723;57.478;12.066;2023-02-24T17:39:53;0.70;;;0.70;;
40995;SDS011;26723;57.478;12.066;2023-02-24T17:43:04;0.50;;;0.50;;
40995;SDS011;26723;57.478;12.066;2023-02-24T17:46:13;1.90;;;1.10;;
40995;SDS011;26723;57.478;12.066;2023-02-24T17:49:21;0.43;;;0.43;;
40995;SDS011;26723;57.478;12.066;2023-02-24T17:52:30;0.57;;;0.57;;
40995;SDS011;26723;57.478;12.066;2023-02-24T17:55:38;0.60;;;0.60;;
40995;SDS011;26723;57.478;12.066;2023-02-24T17:59:06;0.97;;;0.60;;
40995;SDS011;26723;57.478;12.066;2023-02-24T18:02:15;0.50;;;0.50;;
40995;SDS011;26723;57.478;12.066;2023-02-24T18:05:24;0.73;;;0.73;;
40995;SDS011;26723;57.478;12.066;2023-02-24T18:08:33;0.90;;;0.90;;
40995;SDS011;26723;57.478;12.066;2023-02-24T18:11:43;1.33;;;0.90;;
40995;SDS011;26723;57.478;12.066;2023-02-24T18:14:54;1.07;;;0.70;;
40995;SDS011;26723;57.478;12.066;2023-02-24T18:18:14;0.87;;;0.87;;
40995;SDS011;26723;57.478;12.066;2023-02-24T18:21:22;1.67;;;0.80;;
40995;SDS011;26723;57.478;12.066;2023-02-24T18:24:31;0.70;;;0.70;;
40995;SDS011;26723;57.478;12.066;2023-02-24T18:27:40;0.98;;;0.98;;
40995;SDS011;26723;57.478;12.066;2023-02-24T18:30:49;0.87;;;0.87;;
40995;SDS011;26723;57.478;12.066;2023-02-24T18:33:58;0.93;;;0.80;;
40995;SDS011;26723;57.478;12.066;2023-02-24T18:37:08;0.93;;;0.93;;
40995;SDS011;26723;57.478;12.066;2023-02-24T18:40:16;1.00;;;0.90;;
40995;SDS011;26723;57.478;12.066;2023-02-24T18:43:25;1.00;;;1.00;;
40995;SDS011;26723;57.478;12.066;2023-02-24T18:46:35;1.00;;;1.00;;
40995;SDS011;26723;57.478;12.066;2023-02-24T18:49:43;1.00;;;1.00;;
40995;SDS011;26723;57.478;12.066;2023-02-24T18:52:52;1.20;;;1.10;;
40995;SDS011;26723;57.478;12.066;2023-02-24T18:56:01;1.10;;;1.10;;
40995;SDS011;26723;57.478;12.066;2023-02-24T18:59:10;0.90;;;0.90;;
40995;SDS011;26723;57.478;12.066;2023-02-24T19:02:20;0.90;;;0.90;;
40995;SDS011;26723;57.478;12.066;2023-02-24T19:05:29;0.80;;;0.80;;
40995;SDS011;26723;57.478;12.066;2023-02-24T19:08:44;1.30;;;1.20;;
40995;SDS011;26723;57.478;12.066;2023-02-24T19:11:53;1.20;;;1.20;;